CDT,Max TemperatureF,Mean TemperatureF,Min TemperatureF,Max Dew PointF,MeanDew PointF,Min DewpointF,Max Humidity, Mean Humidity, Min Humidity, Max Sea Level PressureIn, Mean Sea Level PressureIn, Min Sea Level PressureIn, Max VisibilityMiles, Mean VisibilityMiles, Min VisibilityMiles, Max Wind SpeedMPH, Mean Wind SpeedMPH, Max Gust SpeedMPH,PrecipitationIn, CloudCover, Events, WindDirDegrees
2013-10-1,82,68,56,67,62,57,100,83,49,29.99,29.94,29.89,10,9,1,16,8,24,0.00,3,,184
2013-10-2,82,70,58,68,63,58,100,85,55,30.07,30.01,29.95,10,6,0,9,3,,0.00,3,Fog,127
2013-10-3,79,72,64,72,67,61,100,90,69,29.94,29.90,29.83,10,9,2,15,6,22,0.45,4,Rain-Thunderstorm,172
2013-10-4,84,74,64,72,68,64,100,84,60,29.96,29.91,29.88,10,8,3,12,7,17,0.00,3,,161
2013-10-5,74,63,52,70,64,50,100,89,73,29.91,29.87,29.82,10,10,2,16,8,21,0.12,4,Rain,197
2013-10-6,52,46,41,50,43,38,100,87,62,29.86,29.80,29.76,10,10,7,16,7,20,0.02,5,Rain,223
2013-10-7,69,56,43,50,47,44,100,75,42,30.10,29.98,29.83,10,10,5,12,7,20,0.01,2,Rain,249
2013-10-8,76,58,42,52,47,42,100,69,38,30.18,30.13,30.10,10,10,10,13,3,18,0.00,0,,165
2013-10-9,72,59,46,50,47,45,97,72,38,30.21,30.15,30.11,10,10,10,9,4,,0.00,0,,124
2013-10-10,75,60,45,57,52,44,100,78,50,30.16,30.09,30.00,10,10,10,10,3,24,0.00,0,,136
2013-10-11,76,64,53,60,56,54,100,75,48,30.03,29.96,29.88,10,9,5,17,6,25,0.00,1,,144
2013-10-12,70,56,43,60,49,38,94,68,34,30.22,30.03,29.91,10,10,7,14,6,21,0.00,3,,236
2013-10-13,66,50,34,43,35,32,99,65,28,30.41,30.35,30.23,10,9,1,12,2,16,0.00,0,,2
2013-10-14,64,51,38,45,40,33,91,65,41,30.39,30.26,30.04,10,9,1,12,5,21,0.00,0,,101
2013-10-15,69,56,45,62,51,41,100,78,54,30.04,29.90,29.81,10,9,2,18,9,26,0.10,5,Rain,198
2013-10-16,52,48,46,45,43,41,87,79,75,29.99,29.95,29.92,10,10,1,18,10,22,0.00,8,,256
2013-10-17,61,52,43,46,41,35,100,75,38,29.97,29.90,29.84,10,10,10,13,5,24,0.04,4,Rain,228
2013-10-18,53,47,41,42,39,37,100,77,54,30.02,29.97,29.87,10,10,10,15,8,20,0.00,6,,269
2013-10-19,55,44,33,40,37,33,100,75,45,29.97,29.89,29.82,10,10,10,18,8,26,0.00,5,Rain,223
2013-10-20,67,52,37,47,42,37,97,72,39,29.86,29.81,29.72,10,10,10,21,8,25,0.00,5,Rain,204
2013-10-21,50,41,29,48,33,24,94,72,43,30.02,29.98,29.85,10,10,10,22,8,33,0.04,3,Rain,285
2013-10-22,40,32,26,40,35,26,100,97,89,30.02,29.94,29.84,10,8,3,17,4,20,0.16,8,Rain,32
2013-10-23,43,35,27,36,32,28,100,83,58,30.09,30.05,29.99,10,10,7,14,8,20,0.00,6,Rain,280
2013-10-24,40,32,24,36,26,23,99,72,53,30.36,30.23,30.08,10,10,10,16,9,24,0.00,5,,292
2013-10-25,53,38,22,34,27,22,100,70,35,30.43,30.31,30.09,10,10,10,17,4,24,0.00,0,,212
2013-10-26,53,41,29,36,31,27,95,62,40,30.13,30.03,29.95,10,10,10,21,12,30,0.00,1,,262
2013-10-27,56,39,23,34,30,23,100,72,38,30.11,30.04,29.97,10,10,10,15,3,18,0.00,0,,197
2013-10-28,61,46,31,40,34,29,95,68,36,30.31,30.19,30.04,10,10,10,13,3,17,0.00,0,,67
2013-10-29,54,46,38,51,42,38,100,82,57,30.30,30.19,30.09,10,9,2,12,8,17,0.00,4,Rain,98
2013-10-30,63,57,51,63,56,51,100,100,100,30.09,29.95,29.75,10,3,0,13,6,23,1.07,8,Fog-Rain-Thunderstorm,120
2013-10-31,63,53,43,63,54,43,100,99,94,29.74,29.53,29.36,10,9,3,17,11,22,0.48,8,Rain,234